Waterloo, Ohio
Current Conditions -  °F | °C
As of 3:51 PM on Tuesday 27 Jan 2015 (Local Time) from KHTS Reporting Station
Few Clouds Few Clouds  
Wind Chill: -6°   Ceiling: Unl
Heat Index: -2°   Visibility: 10mi
Dew Point: -9°   Wind: 7mph
Humidity: 61%   Direction: 340°NNW
Pressure: 30.06"   Gusts: NA
Location:  38.7°N, 82.47°W
Report Text: KHTS 272051Z 34006KT 10SM FEW120 M02/M09 A3006 RMK AO2 SLP188 T10221089 53008
Loading
Personal Weather Stations






























Interactive Weather Map New forecast layout! Learn more

10-Day Weather Forecast

Advertisements
Track Severe Weather on mobile